Time;durP1;ratioP1;P1;durP2;ratioP2;P2;SDS_P1;SDS_P2;PMS_P1;PMS_P2;Temp;Humidity;BMP_temperature;BMP_pressure;BME280_temperature;BME280_humidity;BME280_pressure;Samples;Min_cycle;Max_cycle;Signal;HPM_P1;HPM_P2
2021/10/08 00:04:50;;;;;;;3.90;1.13;;;16.20;46.60;;;;;;20808901;28;82294;-75
2021/10/08 00:14:53;;;;;;;4.10;1.02;;;16.10;47.10;;;;;;20808229;28;81949;-75
2021/10/08 00:24:55;;;;;;;4.70;0.90;;;16.00;47.50;;;;;;20806863;28;82363;-74
2021/10/08 00:34:57;;;;;;;4.47;1.30;;;15.80;48.10;;;;;;20808716;28;80690;-73
2021/10/08 00:44:59;;;;;;;4.72;1.00;;;15.70;48.50;;;;;;20805955;28;81971;-74
2021/10/08 00:55:04;;;;;;;2.33;1.03;;;15.50;49.10;;;;;;20807990;28;82016;-73
2021/10/08 01:05:06;;;;;;;2.75;0.95;;;15.40;49.20;;;;;;20804974;28;81405;-73
2021/10/08 01:15:09;;;;;;;2.78;0.80;;;15.40;49.60;;;;;;20804899;28;80711;-73
2021/10/08 01:25:11;;;;;;;6.90;1.27;;;15.40;49.60;;;;;;20805197;28;80634;-73
2021/10/08 01:35:15;;;;;;;3.17;1.20;;;15.40;49.80;;;;;;20805023;28;80764;-74
2021/10/08 01:45:18;;;;;;;2.72;0.77;;;15.20;50.50;;;;;;20803059;27;79884;-75
2021/10/08 01:55:24;;;;;;;4.50;0.75;;;15.00;50.90;;;;;;20803545;28;82169;-74
2021/10/08 02:05:34;;;;;;;2.67;0.93;;;14.90;51.50;;;;;;20801682;28;81001;-74
2021/10/08 02:15:38;;;;;;;3.08;0.95;;;14.80;52.00;;;;;;20799860;28;81819;-74
2021/10/08 02:25:42;;;;;;;1.75;0.85;;;14.70;51.90;;;;;;20799847;28;80632;-74
2021/10/08 02:35:45;;;;;;;2.20;0.80;;;14.60;52.10;;;;;;20799399;28;80738;-73
2021/10/08 02:45:50;;;;;;;3.28;1.15;;;14.50;52.40;;;;;;20798153;28;79840;-73
2021/10/08 02:56:12;;;;;;;1.92;0.70;;;14.40;52.70;;;;;;20801323;28;83919;-72
2021/10/08 03:06:33;;;;;;;3.25;0.80;;;14.30;53.00;;;;;;20797820;28;82420;-71
2021/10/08 03:16:42;;;;;;;2.08;0.70;;;14.20;53.70;;;;;;20798386;28;80762;-72
2021/10/08 03:27:04;;;;;;;1.77;0.75;;;14.10;54.10;;;;;;20798299;28;80261;-71
2021/10/08 03:37:34;;;;;;;4.32;0.80;;;14.00;54.50;;;;;;20795764;28;80320;-71
2021/10/08 03:58:18;;;;;;;3.23;1.20;;;13.90;57.40;;;;;;20802115;28;80700;-74
2021/10/08 04:08:39;;;;;;;3.33;0.90;;;13.70;57.20;;;;;;20809108;28;80566;-76
2021/10/08 04:18:53;;;;;;;7.35;1.20;;;13.60;57.90;;;;;;20807707;28;81217;-73
2021/10/08 04:29:05;;;;;;;4.07;1.10;;;13.70;57.10;;;;;;20796440;28;81453;-74
2021/10/08 04:39:17;;;;;;;6.03;1.20;;;13.60;57.60;;;;;;20788666;28;80189;-73
2021/10/08 04:49:39;;;;;;;4.43;1.00;;;13.50;58.50;;;;;;20724473;28;83087;-74
2021/10/08 04:59:45;;;;;;;3.00;1.10;;;13.50;58.20;;;;;;20724380;28;82224;-74
2021/10/08 05:09:51;;;;;;;4.60;0.98;;;13.40;57.90;;;;;;20722816;28;80685;-73
2021/10/08 05:19:55;;;;;;;2.83;1.40;;;13.30;58.20;;;;;;20721653;28;80854;-77
2021/10/08 05:30:01;;;;;;;3.55;1.50;;;13.20;58.60;;;;;;20745628;28;81874;-78
2021/10/08 05:40:06;;;;;;;6.45;1.70;;;13.10;58.90;;;;;;20782123;28;81559;-75
2021/10/08 05:50:10;;;;;;;5.85;1.75;;;13.00;59.30;;;;;;20786277;28;81002;-74
2021/10/08 06:00:13;;;;;;;4.30;1.53;;;13.10;59.00;;;;;;20782605;28;80922;-73
2021/10/08 06:10:15;;;;;;;6.40;2.00;;;13.00;58.80;;;;;;20793835;28;81982;-67
2021/10/08 06:20:17;;;;;;;11.40;2.83;;;13.00;58.60;;;;;;20791764;28;81453;-64
2021/10/08 06:30:20;;;;;;;7.22;2.05;;;13.00;58.80;;;;;;20790929;28;81186;-64
2021/10/08 06:40:23;;;;;;;6.10;1.75;;;13.10;58.90;;;;;;20790955;28;81350;-65
2021/10/08 06:50:27;;;;;;;7.30;1.90;;;13.00;58.60;;;;;;20786776;28;81228;-64
2021/10/08 07:00:29;;;;;;;8.38;2.45;;;13.10;58.60;;;;;;20782968;28;81599;-64
2021/10/08 07:10:31;;;;;;;6.22;1.67;;;13.20;58.90;;;;;;20782949;28;80992;-64
2021/10/08 07:20:33;;;;;;;4.35;1.67;;;13.50;58.30;;;;;;20787374;28;82042;-63
2021/10/08 07:30:36;;;;;;;9.85;2.85;;;13.60;57.60;;;;;;20790851;28;81855;-64
2021/10/08 07:40:39;;;;;;;7.67;2.60;;;13.90;56.40;;;;;;20802765;28;82007;-64
2021/10/08 07:50:41;;;;;;;8.38;2.55;;;14.20;55.50;;;;;;20797575;28;81863;-64
2021/10/08 08:00:43;;;;;;;7.72;2.45;;;14.60;54.70;;;;;;20800316;28;81590;-66
2021/10/08 08:10:45;;;;;;;13.37;2.13;;;15.00;53.90;;;;;;20797614;28;81831;-66
2021/10/08 08:20:47;;;;;;;7.72;1.80;;;15.50;52.70;;;;;;20800582;28;81930;-64
2021/10/08 08:30:50;;;;;;;12.60;3.22;;;15.90;51.30;;;;;;20793419;28;82268;-63
2021/10/08 08:40:53;;;;;;;12.25;2.88;;;16.40;50.30;;;;;;20786678;28;81430;-63
2021/10/08 08:50:55;;;;;;;9.75;2.72;;;17.00;49.70;;;;;;20799010;28;82084;-64
2021/10/08 09:01:01;;;;;;;11.83;3.23;;;17.50;48.30;;;;;;20798242;28;81442;-64
2021/10/08 09:11:05;;;;;;;13.52;3.97;;;18.20;47.00;;;;;;20794951;28;81492;-63
2021/10/08 09:21:15;;;;;;;13.32;3.58;;;18.90;46.20;;;;;;20793057;28;81744;-64
2021/10/08 09:31:18;;;;;;;10.00;2.65;;;19.60;45.00;;;;;;20790527;28;82038;-65
2021/10/08 09:41:20;;;;;;;;;;;21.60;41.10;;;;;;20786692;28;81417;-62
2021/10/08 09:51:31;;;;;;;10.02;4.45;;;24.50;37.40;;;;;;20814727;28;81823;-63
2021/10/08 10:01:35;;;;;;;;;;;26.60;32.50;;;;;;20791910;28;81830;-65
2021/10/08 10:11:38;;;;;;;4.10;0.95;;;28.90;30.20;;;;;;20814481;28;81884;-63
2021/10/08 10:21:41;;;;;;;1.65;0.90;;;31.30;25.60;;;;;;20792956;28;81095;-64
2021/10/08 10:31:44;;;;;;;1.80;0.30;;;33.60;22.80;;;;;;20787341;28;81621;-65
2021/10/08 10:42:14;;;;;;;3.60;0.60;;;36.10;20.50;;;;;;20786297;28;81021;-64
2021/10/08 10:52:19;;;;;;;3.13;0.90;;;38.70;18.70;;;;;;20779856;28;81684;-64
2021/10/08 11:02:25;;;;;;;3.72;0.77;;;41.50;16.10;;;;;;20784780;28;80907;-63
2021/10/08 11:12:40;;;;;;;7.15;1.23;;;42.10;15.60;;;;;;20799635;28;81095;-62
2021/10/08 11:22:43;;;;;;;8.30;1.55;;;36.00;19.80;;;;;;20795698;28;82179;-63
2021/10/08 11:32:50;;;;;;;10.88;1.27;;;37.40;18.70;;;;;;20798536;28;81596;-63
2021/10/08 11:43:00;;;;;;;6.78;1.02;;;42.50;15.20;;;;;;20797825;28;81722;-66
2021/10/08 11:53:03;;;;;;;10.23;1.45;;;42.00;15.30;;;;;;20801930;28;81231;-65
2021/10/08 12:03:25;;;;;;;8.15;1.52;;;37.20;18.90;;;;;;20800976;28;81719;-65
2021/10/08 12:13:39;;;;;;;5.38;0.80;;;37.60;18.40;;;;;;20798128;28;80998;-64
2021/10/08 12:23:42;;;;;;;5.75;0.80;;;35.80;19.50;;;;;;20792613;28;80922;-68
2021/10/08 12:33:47;;;;;;;4.00;1.02;;;34.70;20.40;;;;;;20796586;28;81202;-65
2021/10/08 12:44:04;;;;;;;7.03;1.33;;;35.00;20.20;;;;;;20794054;28;82860;-66
2021/10/08 12:54:21;;;;;;;3.05;0.47;;;35.20;20.60;;;;;;20751313;28;80510;-65
2021/10/08 13:04:23;;;;;;;3.35;0.88;;;38.00;17.60;;;;;;20726639;28;80739;-64
2021/10/08 13:14:28;;;;;;;3.65;0.93;;;38.40;17.40;;;;;;20746601;28;81710;-64
2021/10/08 13:24:31;;;;;;;2.65;0.90;;;37.00;18.70;;;;;;20737333;28;81846;-66
2021/10/08 13:34:33;;;;;;;3.28;0.90;;;34.00;20.90;;;;;;20782092;28;81654;-64
2021/10/08 13:44:38;;;;;;;3.30;0.90;;;34.50;20.40;;;;;;20796567;28;80351;-65
2021/10/08 13:54:39;;;;;;;3.45;0.50;;;33.00;21.70;;;;;;20798421;28;81872;-63
2021/10/08 14:04:57;;;;;;;3.17;0.82;;;35.00;20.30;;;;;;20796770;28;81753;-66
2021/10/08 14:14:59;;;;;;;4.82;0.70;;;35.50;20.10;;;;;;20794031;28;81679;-64
2021/10/08 14:25:01;;;;;;;1.35;0.70;;;43.00;14.60;;;;;;20801231;28;80879;-63
2021/10/08 14:35:05;;;;;;;4.45;0.50;;;38.10;17.60;;;;;;20789708;28;81774;-66
2021/10/08 14:45:07;;;;;;;3.97;1.80;;;35.00;20.40;;;;;;20775279;28;80728;-67
2021/10/08 15:05:31;;;;;;;4.40;0.90;;;33.50;20.70;;;;;;20797779;28;81892;-68
2021/10/08 15:15:33;;;;;;;1.58;0.60;;;32.30;21.50;;;;;;20797504;28;81785;-64
2021/10/08 15:25:35;;;;;;;2.10;0.93;;;34.40;19.70;;;;;;20798470;28;80720;-65
2021/10/08 15:35:38;;;;;;;2.95;0.50;;;32.90;21.00;;;;;;20793067;28;81794;-68
2021/10/08 15:45:41;;;;;;;3.50;0.47;;;32.70;21.10;;;;;;20795830;28;81832;-65
2021/10/08 15:55:43;;;;;;;2.38;0.45;;;32.80;20.90;;;;;;20800220;28;80648;-65
2021/10/08 16:05:45;;;;;;;2.00;0.73;;;31.20;22.10;;;;;;20808893;28;80723;-65
2021/10/08 16:15:48;;;;;;;3.03;0.28;;;29.50;24.40;;;;;;20807945;28;81571;-65
2021/10/08 16:25:51;;;;;;;4.72;0.60;;;28.40;25.10;;;;;;20805072;28;80624;-65
2021/10/08 16:35:54;;;;;;;1.77;0.73;;;27.70;25.70;;;;;;20808716;28;80338;-65
2021/10/08 16:45:56;;;;;;;1.63;0.45;;;27.10;27.30;;;;;;20805522;28;81838;-63
2021/10/08 16:55:57;;;;;;;12.23;1.10;;;26.70;27.10;;;;;;20797434;28;81130;-65
2021/10/08 17:05:59;;;;;;;5.03;1.23;;;26.30;29.40;;;;;;20789064;28;81904;-69
2021/10/08 17:16:02;;;;;;;2.78;0.90;;;25.80;30.20;;;;;;20794045;28;81123;-70
2021/10/08 17:26:10;;;;;;;3.85;1.38;;;25.50;29.60;;;;;;20795105;28;81763;-70
2021/10/08 17:36:12;;;;;;;6.43;1.67;;;25.10;31.10;;;;;;20799703;28;80410;-70
2021/10/08 17:46:14;;;;;;;6.93;3.35;;;24.70;32.30;;;;;;20752116;28;80060;-69
2021/10/08 17:56:18;;;;;;;10.20;2.15;;;24.30;34.10;;;;;;20721522;28;80042;-69
2021/10/08 18:06:21;;;;;;;6.93;1.92;;;23.90;35.10;;;;;;20720821;28;81122;-71
2021/10/08 18:16:25;;;;;;;4.65;2.00;;;23.50;35.90;;;;;;20718691;28;81811;-70
2021/10/08 18:26:29;;;;;;;9.60;3.15;;;23.20;36.70;;;;;;20745000;28;80757;-75
2021/10/08 18:36:32;;;;;;;11.10;4.15;;;22.90;37.90;;;;;;20724226;28;80729;-71
2021/10/08 18:46:37;;;;;;;7.72;3.13;;;22.60;39.00;;;;;;20715451;28;80701;-71
2021/10/08 18:56:39;;;;;;;13.40;3.50;;;22.40;39.00;;;;;;20717665;28;80994;-70
2021/10/08 19:06:41;;;;;;;;;;;22.20;39.20;;;;;;20727911;28;81879;-72
2021/10/08 19:16:54;;;;;;;;;;;22.00;38.80;;;;;;20759326;28;81722;-70
2021/10/08 19:26:56;;;;;;;7.50;3.38;;;21.90;38.90;;;;;;20821300;28;76955;-71
2021/10/08 19:36:58;;;;;;;6.25;2.90;;;21.70;39.80;;;;;;20800234;28;79969;-73
2021/10/08 19:47:07;;;;;;;12.45;7.45;;;21.50;40.10;;;;;;20781549;28;82254;-71
2021/10/08 19:57:08;;;;;;;12.93;5.78;;;21.20;41.50;;;;;;20812948;28;82167;-72
2021/10/08 20:17:13;;;;;;;17.80;7.53;;;20.80;43.10;;;;;;20802457;28;80829;-72
2021/10/08 20:27:15;;;;;;;25.52;8.07;;;20.60;43.70;;;;;;20729478;28;80886;-74
2021/10/08 20:37:17;;;;;;;12.88;6.55;;;20.40;44.30;;;;;;20748886;28;81925;-72
2021/10/08 20:47:19;;;;;;;;;;;20.30;44.20;;;;;;20809768;27;80451;-70
2021/10/08 20:57:23;;;;;;;6.43;2.90;;;20.00;43.70;;;;;;20831351;28;79629;-72
2021/10/08 21:07:27;;;;;;;9.93;3.17;;;19.90;44.50;;;;;;20800064;27;80129;-74
2021/10/08 21:17:31;;;;;;;10.15;3.45;;;19.70;45.20;;;;;;20793994;28;79870;-72
2021/10/08 21:27:33;;;;;;;;;;;19.50;45.90;;;;;;20773936;28;81131;-72
2021/10/08 21:47:49;;;;;;;4.80;0.40;;;19.90;40.30;;;;;;20733831;28;80590;-72
2021/10/08 21:57:50;;;;;;;1.43;0.50;;;20.20;38.50;;;;;;20722829;28;80748;-72
2021/10/08 22:07:54;;;;;;;1.85;0.30;;;20.30;36.50;;;;;;20721858;28;81040;-74
2021/10/08 22:17:56;;;;;;;0.83;0.20;;;20.20;35.60;;;;;;20722227;28;81736;-70
2021/10/08 22:38:00;;;;;;;1.13;0.33;;;19.90;34.60;;;;;;20736987;28;81183;-69
2021/10/08 22:48:03;;;;;;;2.27;0.40;;;19.90;34.30;;;;;;20744969;28;80772;-72
2021/10/08 22:58:05;;;;;;;5.45;0.70;;;19.70;34.20;;;;;;20758076;28;80726;-72
2021/10/08 23:08:10;;;;;;;3.13;0.47;;;19.50;34.40;;;;;;20729315;28;81127;-70
2021/10/08 23:18:12;;;;;;;1.35;0.32;;;19.40;34.40;;;;;;20714595;28;82375;-71
2021/10/08 23:28:15;;;;;;;2.45;0.40;;;19.20;34.50;;;;;;20728969;28;80729;-70
2021/10/08 23:38:17;;;;;;;2.83;0.77;;;19.20;34.20;;;;;;20713594;28;80758;-72
2021/10/08 23:48:19;;;;;;;4.53;0.50;;;18.90;35.10;;;;;;20714839;28;81799;-71
2021/10/08 23:58:21;;;;;;;3.27;0.40;;;18.70;35.80;;;;;;20704813;28;80727;-71
